• Join FlightAware (Why Join?)
  • Login
  • US Flag 
01:51PM EDT


 

Airport Tracker/Info


-or-


 

Live Flight TrackerFlight Track Log ✈ JUS196 ✈ 15-Apr-2013 ✈ KMEM - KYIP

Flight Track Log - Related Links

Times and Time Zones

All times are in EDT time to prevent confusion due to time zone crossing. See the JUS196 flight status page for this flight to view local times or setup timezone preferences in your user account.

Time Position Orientation Groundspeed Altitude Reporting Facility
EDT Latitude Longitude Course Direction KTS MPH feet Rate Location/Type
10:28PM 35.0333 -89.9667 180° South 144 166 900  Level KMEM
10:29PM 35.0000 -89.9667 180° South 177 204 2,900 2,340 Climbing KMEM
10:30PM 34.9667 -89.9000 121° Southeast 264 304 5,400 3,000 Climbing KMEM
10:31PM 35.0000 -89.8333 59° Northeast 316 364 8,900 3,300 Climbing KMEM
10:32PM 35.0958 -89.8089 12° North 330 380 12,800 3,180 Climbing Memphis Center
10:33PM 35.2022 -89.7828 11° North 341 392 16,100 3,000 Climbing Memphis Center
10:34PM 35.3042 -89.7567 12° North 362 417 18,800 2,400 Climbing Memphis Center
10:35PM 35.4103 -89.6997 24° Northeast 387 445 21,000 2,100 Climbing Memphis Center
10:36PM 35.5100 -89.6250 31° Northeast 401 461 23,000 2,400 Climbing Memphis Center
10:37PM 35.6158 -89.5475 31° Northeast 431 496 25,800 2,100 Climbing Memphis Center
10:38PM 35.7153 -89.4647 34° Northeast 431 496 27,300 1,620 Climbing Memphis Center
10:39PM 35.8272 -89.3814 31° Northeast 439 505 29,100 1,620 Climbing Memphis Center
10:40PM 35.9392 -89.2956 32° Northeast 452 520 30,600 1,500 Climbing Memphis Center
10:41PM 36.0511 -89.2069 33° Northeast 467 537 32,100 1,500 Climbing Memphis Center
10:42PM 36.1711 -89.1228 30° Northeast 477 549 33,600 1,200 Climbing Memphis Center
10:43PM 36.2869 -89.0283 33° Northeast 487 560 34,600 660 Climbing Memphis Center
10:44PM 36.4089 -88.9439 29° Northeast 492 566 35,000 180 Climbing Memphis Center
10:45PM 36.5308 -88.8514 31° Northeast 503 579 35,000  Level Memphis Center
10:46PM 36.6486 -88.7639 31° Northeast 503 579 35,000  Level Memphis Center
10:47PM 36.7664 -88.6786 30° Northeast 503 579 35,000  Level Memphis Center
10:48PM 36.8839 -88.5853 32° Northeast 498 573 35,000  Level Memphis Center
10:49PM 37.0014 -88.5022 29° Northeast 493 567 35,000  Level Memphis Center
10:50PM 37.1167 -88.4111 32° Northeast 487 560 35,000  Level Memphis Center
10:52PM 37.2875 -88.2753 32° Northeast 495 570 35,000  Level Indianapolis Center
10:53PM 37.4031 -88.1794 33° Northeast 493 567 35,000  Level Indianapolis Center
10:54PM 37.5222 -88.0867 32° Northeast 497 572 35,000  Level Indianapolis Center
10:55PM 37.6397 -87.9944 32° Northeast 494 568 35,000  Level Indianapolis Center
10:56PM 37.7747 -87.8850 33° Northeast 495 570 35,000  Level Indianapolis Center
10:57PM 37.8939 -87.7950 31° Northeast 495 570 35,000  Level Indianapolis Center
10:58PM 38.0086 -87.6947 35° Northeast 497 572 35,000  Level Indianapolis Center
10:59PM 38.1272 -87.6050 31° Northeast 493 567 35,000  Level Indianapolis Center
11:00PM 38.2417 -87.5081 34° Northeast 491 565 35,000  Level Indianapolis Center
11:01PM 38.3600 -87.4144 32° Northeast 493 567 35,000  Level Indianapolis Center
11:02PM 38.4786 -87.3194 32° Northeast 493 567 35,000  Level Indianapolis Center
11:03PM 38.5944 -87.2194 34° Northeast 495 570 35,000  Level Indianapolis Center
11:04PM 38.7131 -87.1292 31° Northeast 491 565 35,000  Level Indianapolis Center
11:05PM 38.8286 -87.0278 34° Northeast 496 571 35,000  Level Indianapolis Center
11:06PM 38.9458 -86.9364 31° Northeast 491 565 35,000  Level Indianapolis Center
11:07PM 39.0614 -86.8386 33° Northeast 494 568 35,000  Level Indianapolis Center
11:08PM 39.1767 -86.7411 33° Northeast 494 568 35,000  Level Indianapolis Center
11:09PM 39.2944 -86.6478 32° Northeast 494 568 35,000  Level Indianapolis Center
11:10PM 39.4075 -86.5447 35° Northeast 495 570 35,000  Level Indianapolis Center
11:11PM 39.5258 -86.4508 31° Northeast 496 571 35,000  Level Indianapolis Center
11:12PM 39.6397 -86.3494 34° Northeast 495 570 35,000  Level Indianapolis Center
11:13PM 39.7547 -86.2508 33° Northeast 494 568 35,000  Level Indianapolis Center
11:14PM 39.8708 -86.1569 32° Northeast 490 564 35,000  Level Indianapolis Center
11:15PM 40.0058 -86.0339 35° Northeast 492 566 35,000  Level Indianapolis Center
11:16PM 40.1242 -85.9400 31° Northeast 494 568 35,000  Level Indianapolis Center
11:17PM 40.2033 -85.8669 35° Northeast 491 565 35,000  Level Chicago Center
11:19PM 40.4342 -85.6725 33° Northeast 495 570 35,000  Level Chicago Center
11:20PM 40.5464 -85.5664 36° Northeast 495 570 35,000 -1,380 Level Chicago Center
11:21PM 40.6611 -85.4694 33° Northeast 494 568 32,200 -3,060 Descending Chicago Center
11:22PM 40.7772 -85.3633 35° Northeast 504 580 28,800 -3,120 Descending Chicago Center
11:23PM 40.8933 -85.2667 32° Northeast 500 575 25,900 -2,460 Descending Chicago Center
11:24PM 41.0122 -85.2089 20° North 464 534 23,900 -1,380 Descending Chicago Center
11:25PM 41.1225 -85.1539 21° North 436 502 23,100 -480 Descending Chicago Center
11:26PM 41.2556 -85.0792 23° Northeast 433 498 23,000  Descending Chicago Center
11:27PM 41.3781 -85.0367 15° North 459 528 23,100 -420 Climbing Chicago Center
11:28PM 41.4981 -84.9894 16° North 456 525 22,200 -1,440 Descending Chicago Center
11:29PM 41.6125 -84.9383 18° North 442 509 20,200 -2,040 Descending Chicago Center
11:30PM 41.7264 -84.8939 16° North 433 498 18,100 -2,100 Descending Chicago Center
11:31PM 41.7789 -84.7606 62° Northeast 416 479 16,000 -2,160 Descending Chicago Center
11:32PM 41.8303 -84.6239 63° Northeast 415 478 13,800 -2,520 Descending Chicago Center
11:33PM 41.8644 -84.5442 60° Northeast 397 457 12,300 -2,640 Descending FAA TRACON SMA TRACON (SMA)
11:33PM 41.8797 -84.5036 63° Northeast 396 456 11,600 -2,280 Descending FAA TRACON SMA TRACON (SMA)
11:34PM 41.8972 -84.4525 65° Northeast 394 453 10,800 -1,980 Descending FAA TRACON SMA TRACON (SMA)
11:34PM 41.9117 -84.4128 64° Northeast 388 447 10,300 -1,080 Descending FAA TRACON SMA TRACON (SMA)
11:34PM 41.9250 -84.3764 64° Northeast 355 409 10,100 -960 Descending FAA TRACON SMA TRACON (SMA)
11:35PM 41.9431 -84.3356 59° Northeast 320 368 9,700 -1,380 Descending FAA TRACON SMA TRACON (SMA)
11:35PM 41.9567 -84.3025 61° Northeast 332 382 9,200 -1,500 Descending FAA TRACON SMA TRACON (SMA)
11:35PM 41.9708 -84.2708 59° Northeast 322 371 8,700 -1,800 Descending FAA TRACON SMA TRACON (SMA)
11:36PM 41.9872 -84.2314 61° Northeast 318 366 8,000 -1,800 Descending FAA TRACON SMA TRACON (SMA)
11:36PM 42.0014 -84.2014 58° Northeast 313 360 7,500 -1,800 Descending FAA TRACON SMA TRACON (SMA)
11:36PM 42.0161 -84.1717 56° Northeast 313 360 6,800 -1,800 Descending FAA TRACON SMA TRACON (SMA)
11:37PM 42.0322 -84.1333 60° Northeast 301 346 6,300 -1,260 Descending FAA TRACON SMA TRACON (SMA)
11:37PM 42.0419 -84.1036 66° East 286 329 6,000 -1,080 Descending FAA TRACON SMA TRACON (SMA)
11:37PM 42.0514 -84.0739 67° East 281 323 5,600 -1,200 Descending FAA TRACON SMA TRACON (SMA)
11:38PM 42.0639 -84.0381 65° Northeast 277 319 5,200 -900 Descending FAA TRACON SMA TRACON (SMA)
11:38PM 42.0742 -84.0100 64° Northeast 275 316 5,000 -780 Descending FAA TRACON SMA TRACON (SMA)
11:38PM 42.0844 -83.9800 65° Northeast 281 323 4,700 -900 Descending FAA TRACON SMA TRACON (SMA)
11:39PM 42.0967 -83.9406 67° East 292 336 4,400 -600 Descending FAA TRACON SMA TRACON (SMA)
11:39PM 42.1069 -83.9089 66° East 295 339 4,300 -360 Descending FAA TRACON SMA TRACON (SMA)
11:39PM 42.1153 -83.8828 67° East 292 336 4,200 -600 Descending FAA TRACON SMA TRACON (SMA)
11:40PM 42.1314 -83.8436 61° Northeast 280 322 3,900 -600 Descending FAA TRACON SMA TRACON (SMA)
11:40PM 42.1419 -83.8169 62° Northeast 266 306 3,800 -480 Descending FAA TRACON SMA TRACON (SMA)
11:40PM 42.1544 -83.7867 61° Northeast 239 275 3,600 -900 Descending FAA TRACON SMA TRACON (SMA)
11:41PM 42.1636 -83.7622 63° Northeast 237 273 3,200 -1,080 Descending FAA TRACON SMA TRACON (SMA)
11:41PM 42.1717 -83.7375 66° East 236 272 2,900 -900 Descending FAA TRACON SMA TRACON (SMA)
11:41PM 42.1825 -83.7081 64° Northeast 230 265 2,600 -780 Descending FAA TRACON SMA TRACON (SMA)
11:42PM 42.1947 -83.6875 51° Northeast 224 258 2,400 -300 Descending FAA TRACON SMA TRACON (SMA)
11:42PM 42.2064 -83.6692 49° Northeast 209 241 2,400  Level FAA TRACON SMA TRACON (SMA)
11:42PM 42.2194 -83.6469 52° Northeast 198 228 2,400 -180 Level FAA TRACON SMA TRACON (SMA)
11:43PM 42.2306 -83.6283 51° Northeast 205 236 2,300 -180 Descending FAA TRACON SMA TRACON (SMA)
11:43PM 42.2428 -83.6100 48° Northeast 218 251 2,300 120 Level FAA TRACON SMA TRACON (SMA)
11:43PM 42.2603 -83.5897 41° Northeast 213 245 2,400  Climbing FAA TRACON SMA TRACON (SMA)
11:44PM 42.2761 -83.5758 33° Northeast 222 255 2,300 -300 Descending FAA TRACON SMA TRACON (SMA)
11:44PM 42.2919 -83.5619 33° Northeast 222 255 2,200 -300 Descending FAA TRACON SMA TRACON (SMA)
11:44PM 42.3061 -83.5394 50° Northeast 207 238 2,100 -300 Descending FAA TRACON SMA TRACON (SMA)
11:45PM 42.3056 -83.5183 92° East 182 209 2,000 -180 Descending FAA TRACON SMA TRACON (SMA)
11:45PM 42.2989 -83.5019 119° Southeast 148 170 2,000 -300 Level FAA TRACON SMA TRACON (SMA)
11:45PM 42.2886 -83.4858 131° Southeast 145 167 1,800 -480 Descending FAA TRACON SMA TRACON (SMA)
11:46PM 42.2786 -83.4792 154° Southeast 128 147 1,700 -600 Descending FAA TRACON SMA TRACON (SMA)
11:46PM 42.2694 -83.4842 202° Southwest 136 157 1,400 -780 Descending FAA TRACON SMA TRACON (SMA)
11:46PM 42.2611 -83.4964 227° Southwest 116 133 1,200 -600 Descending FAA TRACON SMA TRACON (SMA)
11:47PM 42.2539 -83.5061 225° Southwest 119 137 1,000 -480 Descending FAA TRACON SMA TRACON (SMA)
11:47PM 42.2478 -83.5150 227° Southwest 122 140 900 -120 Descending FAA TRACON SMA TRACON (SMA)
11:48PM 42.2478 -83.5150 180° South 122 140 900  Level FAA TRACON SMA TRACON (SMA)